Evansdale, IA (50707)

7:33 PM CDT on August 20, 2014 (GMT -0500)
Columbus Dr - Waterloo | Change Station
CLOSE
Current Station
Personal Weather Station
Location: Waterloo, IA
Elevation: 910 ft
Nearby Weather Stations

Elev 910 ft 42.47 °N, 92.34 °W | Updated 9 seconds ago

Partly Cloudy
Partly Cloudy
72.0 °F
Feels Like 72.0 °F
N
0.9
Wind Variable Wind from ESE
Gusts 2.0 mph

Today
High -- | Low -- °F
--% Chance of Precip.
Yesterday
High -- | Low -- °F
Precip. -- in
6:21 AM 8:02 PM
Waning Crescent, 18% visible
Pressure 29.87 in
Visibility 10.0 miles
Clouds Few 12000 ft
Dew Point 69 °F
Humidity 90%
Rainfall 0.02 in
Snow Depth Not available.
UV 1 out of 12
Pollen 9.90 out of 12
Air Quality Not available.
Flu Activity Not available.
METAR KALO 202354Z 11005KT 10SM FEW120 22/20 A2988 RMK AO2 RAE2257 SLP114 P0000 60000 T02220200 10250 20222 50001

More Conditions Fewer Conditions

Pressure 29.87 in
Visibility 10.0 miles
Clouds Few 12000 ft
Dew Point 69 °F
Humidity 90%
Rainfall 0.02 in
Snow Depth Not available.
UV 1 out of 12
Pollen 9.90 out of 12
Air Quality Not available.
Flu Activity Not available.
METAR KALO 202354Z 11005KT 10SM FEW120 22/20 A2988 RMK AO2 RAE2257 SLP114 P0000 60000 T02220200 10250 20222 50001

More Conditions Fewer Conditions

10-Day Weather Forecast

Almanac

Astronomy

Aug. 20, 2014 Rise Set
Actual Time 6:21 AM CDT 8:02 PM CDT
Civil Twilight 5:51 AM CDT 8:32 PM CDT
Nautical Twilight 5:15 AM CDT 9:08 PM CDT
Astronomical Twilight 4:36 AM CDT 9:47 PM CDT
Moon 1:59 AM CDT (8/20) 4:50 PM CDT (8/20)
Length of Visible Light 14h 41m
Length of Day
13h 41m
Tomorrow will be 2m 38s shorter.
Waning Crescent, 18% of the Moon is Illuminated
Today
Waning Crescent
Aug 25
New
Sep 2
First Quarter
Sep 8
Full
Sep 15
Last Quarter

Today's Extremes

State Highs State Lows

Community

WunderPhotos

Upload Photos

1,745,811 photos uploaded!

WunderBlogs® & News

Nearby

Snow Depth

Station Depth Elevation
No new snow has been reported.

Earthquake Activity

City Distance Mag. Time & Date
No recent earthquake activity has been reported nearby.
Minimum magnitude displayed is 2.5.

Coastal Water Temperatures

Place Temperature
No Stations Reporting

Nearby Weather Stations